Time;durP1;ratioP1;P1;durP2;ratioP2;P2;SDS_P1;SDS_P2;PMS_P1;PMS_P2;Temp;Humidity;BMP_temperature;BMP_pressure;BME280_temperature;BME280_humidity;BME280_pressure;Samples;Min_cycle;Max_cycle;Signal;HPM_P1;HPM_P2
2024/04/18 00:01:02;;;;;;;0.60;0.60;;;7.90;95.70;;;;;;11182012;26;20934;-76
2024/04/18 00:06:09;;;;;;;0.80;0.80;;;8.00;95.70;;;;;;11179476;26;20239;-76
2024/04/18 00:11:13;;;;;;;0.77;0.77;;;8.10;95.70;;;;;;11181525;26;20270;-76
2024/04/18 00:16:17;;;;;;;1.00;1.00;;;8.10;96.10;;;;;;11203617;26;20799;-76
2024/04/18 00:21:23;;;;;;;1.10;1.10;;;8.20;96.30;;;;;;11202346;26;20241;-75
2024/04/18 00:26:33;;;;;;;0.87;0.87;;;8.30;96.40;;;;;;11203087;26;20245;-76
2024/04/18 00:31:40;;;;;;;0.70;0.70;;;8.40;96.20;;;;;;11200250;26;20727;-75
2024/04/18 00:36:46;;;;;;;0.70;0.70;;;8.50;96.10;;;;;;11219416;26;20242;-76
2024/04/18 00:42:02;;;;;;;0.70;0.70;;;8.50;95.60;;;;;;11223031;26;20245;-76
2024/04/18 00:47:07;;;;;;;0.70;0.70;;;8.60;95.30;;;;;;11219474;26;20230;-77
2024/04/18 00:52:18;;;;;;;0.90;0.90;;;8.60;95.30;;;;;;11220821;26;20334;-75
2024/04/18 00:57:32;;;;;;;0.77;0.77;;;8.70;95.40;;;;;;11199166;26;20628;-76
2024/04/18 01:02:36;;;;;;;0.80;0.80;;;8.70;95.00;;;;;;11203703;26;20247;-75
2024/04/18 01:08:01;;;;;;;1.00;1.00;;;8.70;95.10;;;;;;11214408;26;20281;-75
2024/04/18 01:13:25;;;;;;;0.97;0.97;;;8.70;95.50;;;;;;11199498;26;20285;-76
2024/04/18 01:18:49;;;;;;;0.80;0.80;;;8.80;95.50;;;;;;11185952;26;20278;-76
2024/04/18 01:23:55;;;;;;;0.80;0.80;;;8.80;95.70;;;;;;11183946;26;20359;-75
2024/04/18 01:29:02;;;;;;;0.77;0.77;;;8.80;95.90;;;;;;11186547;26;20235;-76
2024/04/18 01:34:08;;;;;;;0.80;0.80;;;8.90;95.70;;;;;;11185995;26;20246;-76
2024/04/18 01:39:13;;;;;;;0.70;0.70;;;8.80;96.10;;;;;;11185564;26;20270;-76
2024/04/18 01:44:20;;;;;;;0.67;0.67;;;8.80;96.70;;;;;;11183654;26;20349;-75
2024/04/18 01:49:42;;;;;;;0.80;0.80;;;8.80;98.90;;;;;;11184923;26;20274;-75
2024/04/18 01:54:46;;;;;;;1.10;1.10;;;8.80;99.90;;;;;;11184820;26;20808;-76
2024/04/18 02:00:10;;;;;;;1.00;1.00;;;8.80;99.30;;;;;;11185185;26;20647;-76
2024/04/18 02:05:15;;;;;;;1.20;1.20;;;8.80;99.90;;;;;;11191701;26;20247;-76
2024/04/18 02:10:20;;;;;;;1.10;1.10;;;8.90;99.00;;;;;;11176844;26;20227;-76
2024/04/18 02:15:41;;;;;;;1.10;1.10;;;8.90;98.60;;;;;;11170941;26;20247;-76
2024/04/18 02:20:52;;;;;;;0.70;0.70;;;8.80;97.60;;;;;;11184366;26;20246;-76
2024/04/18 02:25:58;;;;;;;1.00;1.00;;;8.80;97.70;;;;;;11183482;26;20247;-76
2024/04/18 02:31:05;;;;;;;1.10;1.10;;;8.80;97.30;;;;;;11184365;26;20236;-76
2024/04/18 02:36:26;;;;;;;0.97;0.97;;;8.80;98.20;;;;;;11181381;26;20243;-76
2024/04/18 02:41:49;;;;;;;1.13;1.13;;;8.70;99.90;;;;;;11182226;26;20751;-76
2024/04/18 02:47:29;;;;;;;1.10;1.10;;;8.70;99.90;;;;;;11170519;26;20335;-76
2024/04/18 02:52:45;;;;;;;1.10;1.10;;;8.50;99.90;;;;;;11171116;26;20270;-76
2024/04/18 02:57:51;;;;;;;1.27;1.27;;;8.50;99.90;;;;;;11175540;26;20654;-76
2024/04/18 03:02:58;;;;;;;1.10;1.10;;;8.50;99.90;;;;;;11174127;26;20235;-76
2024/04/18 03:08:02;;;;;;;1.20;1.20;;;8.50;99.90;;;;;;11183812;26;20239;-76
2024/04/18 03:13:32;;;;;;;1.10;1.10;;;8.50;99.90;;;;;;11166265;26;20251;-76
2024/04/18 03:18:38;;;;;;;1.00;1.00;;;8.50;99.90;;;;;;11182920;26;20649;-76
2024/04/18 03:23:52;;;;;;;1.33;1.33;;;8.50;99.90;;;;;;11164185;26;20712;-75
2024/04/18 03:29:19;;;;;;;1.13;1.13;;;;;;;;;;11174934;26;20240;-76
2024/04/18 03:34:38;;;;;;;1.30;1.30;;;8.40;99.90;;;;;;11174547;26;20250;-77
2024/04/18 03:39:42;;;;;;;1.10;1.10;;;8.40;99.90;;;;;;11161228;26;20266;-76
2024/04/18 03:44:47;;;;;;;1.10;1.10;;;8.50;99.90;;;;;;11317089;20;20291;-78
2024/04/18 03:49:53;;;;;;;1.13;1.13;;;8.50;99.90;;;;;;11340938;25;20271;-76
2024/04/18 03:55:14;;;;;;;1.20;1.20;;;8.50;99.90;;;;;;11329640;25;20739;-77
2024/04/18 04:00:18;;;;;;;1.00;1.00;;;8.50;99.90;;;;;;11306096;25;20288;-76
2024/04/18 04:05:26;;;;;;;1.00;1.00;;;;;;;;;;11265864;25;20229;-77
2024/04/18 04:10:30;;;;;;;0.90;0.90;;;;;;;;;;11266189;25;20238;-77
2024/04/18 04:15:34;;;;;;;0.90;0.90;;;;;;;;;;11267795;25;20571;-77
2024/04/18 04:20:44;;;;;;;1.13;1.13;;;;;;;;;;11370639;25;20234;-76
2024/04/18 04:25:48;;;;;;;0.90;0.90;;;;;;;;;;11335080;25;20280;-76
2024/04/18 04:30:53;;;;;;;0.90;0.90;;;;;;;;;;11307515;25;20238;-77
2024/04/18 04:36:00;;;;;;;1.00;1.00;;;;;;;;;;11273457;25;20280;-76
2024/04/18 04:41:04;;;;;;;0.97;0.97;;;;;;;;;;11290139;25;20238;-76
2024/04/18 04:46:08;;;;;;;0.93;0.93;;;;;;;;;;11497655;25;20252;-77
2024/04/18 04:51:18;;;;;;;0.80;0.80;;;;;;;;;;11505300;25;20824;-76
2024/04/18 04:56:40;;;;;;;0.70;0.70;;;;;;;;;;11473000;25;20750;-76
2024/04/18 05:01:56;;;;;;;0.87;0.87;;;;;;;;;;11497740;25;20992;-77
2024/04/18 05:07:23;;;;;;;0.70;0.70;;;;;;;;;;11452644;25;20239;-77
2024/04/18 05:12:27;;;;;;;0.70;0.70;;;;;;;;;;11490142;25;20349;-76
2024/04/18 05:17:31;;;;;;;0.90;0.90;;;;;;;;;;11537857;25;20279;-76
2024/04/18 05:22:56;;;;;;;1.07;1.07;;;;;;;;;;11432634;25;20248;-75
2024/04/18 05:28:10;;;;;;;0.70;0.70;;;;;;;;;;11487608;25;20229;-76
2024/04/18 05:33:14;;;;;;;0.70;0.70;;;;;;;;;;11459557;25;20278;-76
2024/04/18 05:38:21;;;;;;;0.80;0.80;;;;;;;;;;11412553;25;20640;-77
2024/04/18 05:43:26;;;;;;;0.70;0.70;;;;;;;;;;11487674;25;20233;-76
2024/04/18 05:48:31;;;;;;;0.70;0.70;;;;;;;;;;11457639;25;20275;-76
2024/04/18 05:53:38;;;;;;;0.80;0.80;;;;;;;;;;11460686;25;20232;-76
2024/04/18 05:58:44;;;;;;;0.60;0.60;;;;;;;;;;11446781;25;20236;-75
2024/04/18 06:03:48;;;;;;;0.70;0.70;;;;;;;;;;11409564;26;20293;-75
2024/04/18 06:08:55;;;;;;;0.73;0.73;;;8.90;99.90;;;;;;11438206;25;20224;-75
2024/04/18 06:13:59;;;;;;;0.70;0.70;;;8.90;99.90;;;;;;11515487;25;20226;-75
2024/04/18 06:19:03;;;;;;;0.70;0.70;;;9.00;99.90;;;;;;11425060;25;20236;-76
2024/04/18 06:24:10;;;;;;;0.70;0.70;;;9.00;99.90;;;;;;11394564;25;20347;-75
2024/04/18 06:29:20;;;;;;;0.60;0.60;;;9.10;99.90;;;;;;11438054;25;20399;-76
2024/04/18 06:34:24;;;;;;;0.67;0.67;;;9.10;99.90;;;;;;11458963;25;20241;-76
2024/04/18 06:39:31;;;;;;;0.60;0.60;;;9.10;99.90;;;;;;11451050;25;20269;-75
2024/04/18 06:44:36;;;;;;;0.50;0.50;;;9.20;99.90;;;;;;11487741;25;20719;-75
2024/04/18 06:49:40;;;;;;;0.70;0.70;;;9.10;99.90;;;;;;11388975;25;20619;-76
2024/04/18 06:54:46;;;;;;;0.60;0.60;;;9.10;99.90;;;;;;11388823;25;20228;-75
2024/04/18 06:59:52;;;;;;;0.60;0.60;;;9.10;99.90;;;;;;11462054;25;20250;-75
2024/04/18 07:04:56;;;;;;;0.60;0.60;;;9.10;99.90;;;;;;11524592;25;20238;-75
2024/04/18 07:10:02;;;;;;;0.50;0.50;;;9.10;99.90;;;;;;11425550;25;20816;-75
2024/04/18 07:15:07;;;;;;;0.50;0.50;;;9.10;99.90;;;;;;11495007;25;20653;-75
2024/04/18 07:20:20;;;;;;;0.50;0.50;;;9.20;99.90;;;;;;11511294;25;20751;-75
2024/04/18 07:25:44;;;;;;;0.60;0.60;;;9.30;99.90;;;;;;11395774;25;20805;-75
2024/04/18 07:31:04;;;;;;;0.50;0.50;;;9.40;99.90;;;;;;11517574;25;20226;-76
2024/04/18 07:36:08;;;;;;;0.40;0.40;;;9.60;99.90;;;;;;11431747;25;20228;-75
2024/04/18 07:41:15;;;;;;;0.40;0.40;;;9.80;99.90;;;;;;11439886;25;20263;-76
2024/04/18 07:46:19;;;;;;;0.30;0.30;;;10.00;99.90;;;;;;11505224;25;20229;-74
2024/04/18 07:51:23;;;;;;;0.30;0.30;;;9.90;99.90;;;;;;11529325;25;20249;-76
2024/04/18 07:56:30;;;;;;;0.30;0.30;;;9.90;99.90;;;;;;11431545;25;20637;-76
2024/04/18 08:01:35;;;;;;;0.40;0.40;;;9.80;99.90;;;;;;11440209;25;20725;-77
2024/04/18 08:06:39;;;;;;;0.40;0.40;;;9.90;99.90;;;;;;11436568;25;20767;-77
2024/04/18 08:11:46;;;;;;;0.33;0.33;;;10.00;99.90;;;;;;11449981;25;20319;-76
2024/04/18 08:16:50;;;;;;;0.30;0.30;;;10.20;99.90;;;;;;11401666;25;20238;-76
2024/04/18 08:21:54;;;;;;;0.30;0.30;;;10.20;99.90;;;;;;11521365;25;20317;-76
2024/04/18 08:27:01;;;;;;;0.30;0.30;;;10.10;99.90;;;;;;11508543;25;20526;-76
2024/04/18 08:32:05;;;;;;;0.20;0.20;;;10.10;99.90;;;;;;11477960;25;20793;-77
2024/04/18 08:37:09;;;;;;;0.30;0.30;;;10.10;99.90;;;;;;11386375;25;20330;-76
2024/04/18 08:42:17;;;;;;;0.30;0.30;;;10.00;99.90;;;;;;11405163;26;20240;-77
2024/04/18 08:47:22;;;;;;;0.20;0.20;;;9.90;99.90;;;;;;11410166;25;20725;-76
2024/04/18 08:52:27;;;;;;;0.30;0.30;;;9.90;99.90;;;;;;11376424;25;20257;-76
2024/04/18 08:57:42;;;;;;;0.23;0.23;;;9.90;99.90;;;;;;11410041;25;20634;-76
2024/04/18 09:02:47;;;;;;;0.30;0.30;;;9.90;99.90;;;;;;11389222;25;20245;-76
2024/04/18 09:07:51;;;;;;;0.30;0.30;;;9.80;99.90;;;;;;11382368;25;20235;-76
2024/04/18 09:12:58;;;;;;;0.40;0.40;;;9.90;99.90;;;;;;11425703;25;20274;-76
2024/04/18 09:18:02;;;;;;;0.30;0.30;;;10.00;99.90;;;;;;11375973;25;20236;-75
2024/04/18 09:23:07;;;;;;;0.30;0.30;;;10.20;99.90;;;;;;11413815;25;20331;-75
2024/04/18 09:28:13;;;;;;;0.43;0.43;;;10.40;99.90;;;;;;11397493;25;20802;-75
2024/04/18 09:33:17;;;;;;;0.30;0.30;;;10.70;99.90;;;;;;11384255;25;20240;-76
2024/04/18 09:38:24;;;;;;;0.40;0.40;;;10.80;99.90;;;;;;11385730;25;20260;-75
2024/04/18 09:43:38;;;;;;;0.40;0.40;;;10.90;99.90;;;;;;11427073;25;20323;-76
2024/04/18 09:48:43;;;;;;;0.40;0.40;;;11.10;99.90;;;;;;11386720;26;20233;-76
2024/04/18 09:53:49;;;;;;;0.40;0.40;;;11.50;99.90;;;;;;11513886;25;20714;-76
2024/04/18 09:58:58;;;;;;;0.40;0.40;;;11.90;86.80;;;;;;11392073;25;20240;-76
2024/04/18 10:04:02;;;;;;;0.37;0.37;;;12.40;82.70;;;;;;11376930;25;20241;-76
2024/04/18 10:09:08;;;;;;;0.30;0.30;;;12.50;79.30;;;;;;11417677;25;20236;-78
2024/04/18 10:14:15;;;;;;;0.40;0.40;;;12.40;81.40;;;;;;11558401;25;20666;-77
2024/04/18 10:19:23;;;;;;;0.40;0.40;;;12.60;82.30;;;;;;11487327;25;20326;-77
2024/04/18 10:24:35;;;;;;;0.30;0.30;;;12.40;79.90;;;;;;11409033;26;20258;-77
2024/04/18 10:29:41;;;;;;;0.40;0.40;;;11.90;80.80;;;;;;11420803;25;20717;-78
2024/04/18 10:34:45;;;;;;;0.57;0.57;;;11.20;84.50;;;;;;11541249;25;20263;-77
2024/04/18 10:39:50;;;;;;;0.60;0.60;;;10.60;87.90;;;;;;11439077;25;20264;-76
2024/04/18 10:44:58;;;;;;;0.90;0.90;;;10.10;89.50;;;;;;11397101;25;20243;-77
2024/04/18 10:50:02;;;;;;;1.80;1.80;;;9.70;91.50;;;;;;11423978;25;20226;-78
2024/04/18 10:55:07;;;;;;;2.50;2.50;;;9.30;92.20;;;;;;11396767;26;20274;-79
2024/04/18 11:00:17;;;;;;;2.50;2.50;;;9.20;93.40;;;;;;11395888;26;20236;-77
2024/04/18 11:05:21;;;;;;;2.80;2.80;;;9.10;94.50;;;;;;11404569;26;20271;-76
2024/04/18 11:10:27;;;;;;;3.70;3.70;;;9.00;94.50;;;;;;11473966;25;20236;-76
2024/04/18 11:15:34;;;;;;;3.60;3.60;;;9.00;95.10;;;;;;11546012;25;20241;-77
2024/04/18 11:20:38;;;;;;;3.23;3.23;;;8.90;95.50;;;;;;11392764;25;20236;-79
2024/04/18 11:25:42;;;;;;;3.40;3.40;;;8.90;95.90;;;;;;11550355;25;20336;-76
2024/04/18 11:30:49;;;;;;;3.30;3.30;;;8.80;96.40;;;;;;11408233;26;20235;-76
2024/04/18 11:35:53;;;;;;;3.20;3.20;;;8.80;96.70;;;;;;11556951;25;20328;-80
2024/04/18 11:40:57;;;;;;;2.90;2.90;;;8.90;97.50;;;;;;11406606;26;20239;-77
2024/04/18 11:46:04;;;;;;;2.70;2.70;;;9.10;97.80;;;;;;11444828;25;20228;-77
2024/04/18 11:51:08;;;;;;;2.10;2.10;;;9.50;98.10;;;;;;11357749;25;20239;-78
2024/04/18 11:56:12;;;;;;;2.00;2.00;;;9.90;97.00;;;;;;11426359;25;20243;-78
2024/04/18 12:01:19;;;;;;;2.30;2.30;;;10.10;95.20;;;;;;11503611;25;20238;-76
2024/04/18 12:06:23;;;;;;;2.90;2.90;;;9.80;95.20;;;;;;11406404;26;20307;-78
2024/04/18 12:11:31;;;;;;;3.10;3.10;;;9.50;95.50;;;;;;11407506;26;20228;-77
2024/04/18 12:16:50;;;;;;;2.80;2.80;;;9.30;96.40;;;;;;11535642;25;20229;-78
2024/04/18 12:21:54;;;;;;;2.90;2.90;;;9.10;96.50;;;;;;11367662;25;20335;-77
2024/04/18 12:26:58;;;;;;;2.80;2.80;;;9.00;96.50;;;;;;11501385;25;20239;-75
2024/04/18 12:32:06;;;;;;;2.77;2.77;;;9.00;96.80;;;;;;11436353;25;20682;-76
2024/04/18 12:37:10;;;;;;;2.60;2.60;;;9.00;97.40;;;;;;11405951;25;20733;-77
2024/04/18 12:42:14;;;;;;;2.70;2.70;;;9.00;97.60;;;;;;11481453;25;20278;-77
2024/04/18 12:47:21;;;;;;;2.40;2.40;;;9.00;97.60;;;;;;11554494;25;20324;-77
2024/04/18 12:52:25;;;;;;;2.50;2.50;;;8.90;97.80;;;;;;11368293;26;20255;-77
2024/04/18 12:57:38;;;;;;;2.50;2.50;;;9.00;98.20;;;;;;11420887;25;20228;-78
2024/04/18 13:02:45;;;;;;;2.50;2.50;;;8.90;97.90;;;;;;11407736;25;20611;-77
2024/04/18 13:07:49;;;;;;;2.40;2.40;;;9.00;98.60;;;;;;11571560;25;20566;-76
2024/04/18 13:12:59;;;;;;;1.90;1.90;;;9.20;98.80;;;;;;11506258;25;20646;-76
2024/04/18 13:18:14;;;;;;;1.83;1.83;;;9.30;98.40;;;;;;11411491;25;20700;-78
2024/04/18 13:23:34;;;;;;;2.00;2.00;;;9.60;98.90;;;;;;11444621;25;20699;-77
2024/04/18 13:28:38;;;;;;;1.70;1.70;;;9.90;98.80;;;;;;11554943;25;20228;-77
2024/04/18 13:33:53;;;;;;;1.90;1.90;;;10.10;97.70;;;;;;11406757;25;20351;-77
2024/04/18 13:38:57;;;;;;;1.57;1.57;;;10.30;96.60;;;;;;11548662;25;21015;-77
2024/04/18 13:44:10;;;;;;;1.30;1.30;;;10.50;95.70;;;;;;11440841;25;20254;-78
2024/04/18 13:49:20;;;;;;;1.10;1.10;;;10.80;94.90;;;;;;11401180;25;20327;-76
2024/04/18 13:54:30;;;;;;;1.10;1.10;;;11.00;94.10;;;;;;11410974;26;20244;-77
2024/04/18 13:59:34;;;;;;;1.00;1.00;;;11.20;93.30;;;;;;11410651;26;20801;-78
2024/04/18 14:04:41;;;;;;;1.13;1.13;;;11.30;92.40;;;;;;11411304;25;20232;-78
2024/04/18 14:09:57;;;;;;;1.10;1.10;;;11.50;92.50;;;;;;11410938;25;20652;-77
2024/04/18 14:15:35;;;;;;;1.10;1.10;;;11.60;91.90;;;;;;11392542;26;20725;-76
2024/04/18 14:21:01;;;;;;;0.80;0.80;;;11.70;92.50;;;;;;11410742;26;20278;-77
2024/04/18 14:26:05;;;;;;;0.80;0.80;;;11.90;92.40;;;;;;11447936;25;20239;-80
2024/04/18 14:31:24;;;;;;;0.80;0.80;;;12.10;92.10;;;;;;11410273;26;20240;-77
2024/04/18 14:36:31;;;;;;;0.60;0.60;;;12.30;91.50;;;;;;11409841;26;20239;-77
2024/04/18 14:41:35;;;;;;;0.60;0.60;;;12.50;88.50;;;;;;11373949;26;20224;-78
2024/04/18 14:46:39;;;;;;;0.60;0.60;;;12.60;87.90;;;;;;11368391;25;20305;-78
2024/04/18 14:52:01;;;;;;;0.60;0.60;;;12.50;86.50;;;;;;11394427;26;20239;-76
2024/04/18 14:57:05;;;;;;;0.90;0.90;;;12.00;89.00;;;;;;11408874;26;20228;-79
2024/04/18 15:02:15;;;;;;;1.10;1.10;;;11.30;90.20;;;;;;11409493;26;20785;-77
2024/04/18 15:07:45;;;;;;;1.40;1.40;;;10.80;91.60;;;;;;11408338;26;20331;-79
2024/04/18 15:12:55;;;;;;;1.33;1.33;;;10.40;92.90;;;;;;11399384;25;20236;-76
2024/04/18 15:18:00;;;;;;;1.10;1.10;;;10.10;93.80;;;;;;11386155;26;20571;-76
2024/04/18 15:23:10;;;;;;;0.93;0.93;;;10.00;94.40;;;;;;11376203;26;20278;-78
2024/04/18 15:28:15;;;;;;;0.80;0.80;;;10.00;95.10;;;;;;11408633;26;20334;-78
2024/04/18 15:33:19;;;;;;;0.90;0.90;;;10.00;94.90;;;;;;11330544;26;20229;-77
2024/04/18 15:38:27;;;;;;;1.20;1.20;;;9.90;95.40;;;;;;11387537;26;20744;-77
2024/04/18 15:43:50;;;;;;;1.00;1.00;;;9.90;95.10;;;;;;11359885;26;20236;-77
2024/04/18 15:49:14;;;;;;;1.07;1.07;;;9.90;96.00;;;;;;11396709;26;20331;-77
2024/04/18 15:54:25;;;;;;;1.10;1.10;;;9.90;95.90;;;;;;11407396;26;20323;-76
2024/04/18 15:59:29;;;;;;;0.77;0.77;;;10.00;95.40;;;;;;11407240;25;20615;-76
2024/04/18 16:04:33;;;;;;;0.70;0.70;;;10.00;94.60;;;;;;11407714;26;20228;-76
2024/04/18 16:09:39;;;;;;;0.70;0.70;;;9.90;94.70;;;;;;11406909;26;20235;-76
2024/04/18 16:14:58;;;;;;;0.70;0.70;;;9.80;95.00;;;;;;11367170;25;20275;-74
2024/04/18 16:20:02;;;;;;;0.80;0.80;;;9.80;95.30;;;;;;11400382;26;20812;-76
2024/04/18 16:25:17;;;;;;;0.80;0.80;;;9.70;95.40;;;;;;11406686;26;20240;-76
2024/04/18 16:30:24;;;;;;;0.90;0.90;;;9.50;95.80;;;;;;11406577;26;20228;-76
2024/04/18 16:35:28;;;;;;;0.70;0.70;;;9.50;96.20;;;;;;11405313;26;20832;-76
2024/04/18 16:40:51;;;;;;;0.80;0.80;;;9.60;96.40;;;;;;11330352;26;20225;-76
2024/04/18 16:46:07;;;;;;;0.70;0.70;;;9.60;96.60;;;;;;11384555;26;20236;-77
2024/04/18 16:51:11;;;;;;;0.70;0.70;;;9.70;96.40;;;;;;11341287;26;20241;-76
2024/04/18 16:56:33;;;;;;;0.70;0.70;;;9.70;96.10;;;;;;11387754;26;20239;-76
2024/04/18 17:01:37;;;;;;;0.60;0.60;;;9.80;95.80;;;;;;11405048;25;20236;-76
2024/04/18 17:06:41;;;;;;;0.60;0.60;;;9.80;95.80;;;;;;11404601;26;20713;-76
2024/04/18 17:11:48;;;;;;;0.70;0.70;;;9.90;95.80;;;;;;11405087;26;20244;-76
2024/04/18 17:17:10;;;;;;;0.70;0.70;;;9.90;95.20;;;;;;11342191;26;20270;-77
2024/04/18 17:22:32;;;;;;;0.63;0.63;;;9.90;94.80;;;;;;11404507;25;20274;-76
2024/04/18 17:27:39;;;;;;;0.80;0.80;;;9.90;94.80;;;;;;11404032;26;20235;-76
2024/04/18 17:32:44;;;;;;;0.77;0.77;;;9.90;95.00;;;;;;11397177;26;20375;-76
2024/04/18 17:38:13;;;;;;;0.60;0.60;;;9.90;94.70;;;;;;11456620;25;20239;-76
2024/04/18 17:43:36;;;;;;;0.60;0.60;;;9.90;94.80;;;;;;11479250;25;20270;-75
2024/04/18 17:48:40;;;;;;;0.70;0.70;;;9.90;94.30;;;;;;11488730;25;20723;-76
2024/04/18 17:53:44;;;;;;;0.90;0.90;;;9.90;94.20;;;;;;11388894;25;20240;-76
2024/04/18 17:58:51;;;;;;;0.70;0.70;;;9.90;94.40;;;;;;11409692;26;20236;-77
2024/04/18 18:03:55;;;;;;;0.60;0.60;;;9.80;94.60;;;;;;11409615;25;20339;-76
2024/04/18 18:08:59;;;;;;;0.60;0.60;;;9.80;94.20;;;;;;11386384;26;20265;-76
2024/04/18 18:14:05;;;;;;;0.63;0.63;;;9.60;94.20;;;;;;11313159;26;20237;-76
2024/04/18 18:19:28;;;;;;;0.60;0.60;;;9.40;94.30;;;;;;11393951;26;20270;-76
2024/04/18 18:24:36;;;;;;;0.60;0.60;;;9.20;94.60;;;;;;11378190;26;20236;-76
2024/04/18 18:29:42;;;;;;;0.70;0.70;;;8.90;94.70;;;;;;11380342;26;20606;-76
2024/04/18 18:34:48;;;;;;;0.70;0.70;;;8.80;95.00;;;;;;11405681;25;20632;-77
2024/04/18 18:39:52;;;;;;;0.70;0.70;;;8.60;95.20;;;;;;11389006;25;20228;-77
2024/04/18 18:44:59;;;;;;;0.60;0.60;;;8.40;95.30;;;;;;11403133;26;20725;-76
2024/04/18 18:50:03;;;;;;;0.57;0.57;;;8.30;95.50;;;;;;11372423;26;20638;-77
2024/04/18 18:55:07;;;;;;;0.70;0.70;;;8.20;95.70;;;;;;11399952;25;20720;-77
2024/04/18 19:00:15;;;;;;;0.70;0.70;;;8.10;95.80;;;;;;11374320;26;20816;-76
2024/04/18 19:05:19;;;;;;;0.80;0.80;;;8.00;95.80;;;;;;11406427;25;20263;-77
2024/04/18 19:10:23;;;;;;;0.77;0.77;;;7.90;96.00;;;;;;11408302;26;20327;-77
2024/04/18 19:15:30;;;;;;;0.80;0.80;;;7.80;96.10;;;;;;11389429;25;20714;-74
2024/04/18 19:20:34;;;;;;;0.70;0.70;;;7.80;96.30;;;;;;11382004;26;20240;-76
2024/04/18 19:25:38;;;;;;;0.80;0.80;;;7.80;96.50;;;;;;11387459;26;20753;-76
2024/04/18 19:30:45;;;;;;;0.80;0.80;;;7.90;96.50;;;;;;11362239;26;20319;-76
2024/04/18 19:35:49;;;;;;;0.80;0.80;;;8.00;96.70;;;;;;11372601;26;20253;-76
2024/04/18 19:40:53;;;;;;;0.80;0.80;;;8.10;96.80;;;;;;11396962;26;20346;-76
2024/04/18 19:46:01;;;;;;;1.00;1.00;;;8.20;96.70;;;;;;11393553;26;20323;-75
2024/04/18 19:51:06;;;;;;;0.70;0.70;;;8.30;96.60;;;;;;11362083;26;20357;-76
2024/04/18 19:56:10;;;;;;;0.87;0.87;;;8.30;96.60;;;;;;11395502;26;20342;-76
2024/04/18 20:01:16;;;;;;;0.70;0.70;;;8.30;96.60;;;;;;11391982;25;20319;-77
2024/04/18 20:06:20;;;;;;;0.97;0.97;;;8.30;96.40;;;;;;11403613;26;20228;-76
2024/04/18 20:11:31;;;;;;;0.87;0.87;;;8.30;96.20;;;;;;11373875;26;20334;-76
2024/04/18 20:16:43;;;;;;;0.80;0.80;;;8.20;95.90;;;;;;11376307;26;20240;-77
2024/04/18 20:21:51;;;;;;;0.90;0.90;;;8.10;95.80;;;;;;11406887;26;20282;-76
2024/04/18 20:26:55;;;;;;;0.80;0.80;;;8.00;95.90;;;;;;11406498;26;20240;-77
2024/04/18 20:32:22;;;;;;;0.90;0.90;;;7.90;96.00;;;;;;11406517;25;20232;-76
2024/04/18 20:37:26;;;;;;;0.90;0.90;;;7.80;96.00;;;;;;11332426;26;20240;-75
2024/04/18 20:42:30;;;;;;;0.80;0.80;;;7.80;96.00;;;;;;11402049;25;20232;-76
2024/04/18 20:47:40;;;;;;;0.80;0.80;;;7.70;96.10;;;;;;11352073;25;21165;-77
2024/04/18 20:52:44;;;;;;;0.80;0.80;;;7.70;96.10;;;;;;11332989;25;20647;-76
2024/04/18 20:57:49;;;;;;;0.80;0.80;;;7.70;96.20;;;;;;11396427;26;20632;-76
2024/04/18 21:02:55;;;;;;;0.80;0.80;;;7.70;96.30;;;;;;11369946;25;20693;-77
2024/04/18 21:07:59;;;;;;;0.80;0.80;;;7.80;96.30;;;;;;11385689;26;21034;-76
2024/04/18 21:13:03;;;;;;;0.83;0.83;;;7.80;96.40;;;;;;11356764;25;20702;-76
2024/04/18 21:18:10;;;;;;;0.80;0.80;;;7.80;95.70;;;;;;11390491;25;20347;-77
2024/04/18 21:23:14;;;;;;;0.70;0.70;;;7.80;96.00;;;;;;11397721;26;20232;-76
2024/04/18 21:28:18;;;;;;;0.60;0.60;;;7.90;96.00;;;;;;11383226;26;20236;-78
2024/04/18 21:33:25;;;;;;;0.50;0.50;;;8.00;95.80;;;;;;11359940;26;20244;-77
2024/04/18 21:38:29;;;;;;;0.60;0.60;;;8.10;95.60;;;;;;11394009;26;20241;-76
2024/04/18 21:43:34;;;;;;;0.60;0.60;;;8.10;95.00;;;;;;11434413;21;20728;-78
2024/04/18 21:49:00;;;;;;;0.70;0.70;;;8.20;95.10;;;;;;11566900;25;20725;-78
2024/04/18 21:54:04;;;;;;;0.50;0.50;;;8.20;95.00;;;;;;11533694;25;20819;-79
2024/04/18 21:59:08;;;;;;;0.50;0.50;;;8.20;95.10;;;;;;11484968;25;20239;-78
2024/04/18 22:04:19;;;;;;;0.50;0.50;;;8.30;95.00;;;;;;11510063;25;20318;-79
2024/04/18 22:09:23;;;;;;;0.50;0.50;;;8.30;94.80;;;;;;11509865;25;20322;-79
2024/04/18 22:14:27;;;;;;;0.50;0.50;;;8.30;94.80;;;;;;11509428;25;20242;-79
2024/04/18 22:19:34;;;;;;;0.50;0.50;;;8.40;94.90;;;;;;11508964;25;20270;-78
2024/04/18 22:24:38;;;;;;;0.50;0.50;;;8.50;94.90;;;;;;11500779;25;20277;-78
2024/04/18 22:29:42;;;;;;;0.43;0.43;;;8.60;94.80;;;;;;11510809;25;20227;-78
2024/04/18 22:34:49;;;;;;;0.50;0.50;;;8.60;94.60;;;;;;11476001;25;20238;-78
2024/04/18 22:40:10;;;;;;;0.40;0.40;;;8.70;94.60;;;;;;11511457;25;20247;-77
2024/04/18 22:45:14;;;;;;;0.40;0.40;;;8.70;94.50;;;;;;11510528;25;20269;-77
2024/04/18 22:50:21;;;;;;;0.50;0.50;;;8.80;93.90;;;;;;11508904;25;20593;-77
2024/04/18 22:55:25;;;;;;;0.50;0.50;;;8.80;93.50;;;;;;11506637;25;20239;-76
2024/04/18 23:00:29;;;;;;;0.50;0.50;;;8.80;93.60;;;;;;11506663;25;20858;-76
2024/04/18 23:05:35;;;;;;;0.43;0.43;;;8.80;93.60;;;;;;11506595;25;20692;-78
2024/04/18 23:10:40;;;;;;;0.50;0.50;;;8.80;93.30;;;;;;11506375;25;20786;-78
2024/04/18 23:15:44;;;;;;;0.40;0.40;;;8.80;93.30;;;;;;11505362;25;20343;-77
2024/04/18 23:20:54;;;;;;;0.50;0.50;;;8.80;93.00;;;;;;11468519;25;20266;-77
2024/04/18 23:26:09;;;;;;;0.40;0.40;;;8.80;92.70;;;;;;11472215;25;20667;-76
2024/04/18 23:31:13;;;;;;;0.40;0.40;;;8.70;92.30;;;;;;11505871;25;20345;-77
2024/04/18 23:36:20;;;;;;;0.50;0.50;;;8.70;92.30;;;;;;11502361;25;20227;-77
2024/04/18 23:41:24;;;;;;;0.40;0.40;;;8.60;92.20;;;;;;11501932;25;20258;-76
2024/04/18 23:46:28;;;;;;;0.40;0.40;;;8.60;92.30;;;;;;11504456;25;20239;-77
2024/04/18 23:51:35;;;;;;;0.50;0.50;;;8.50;92.30;;;;;;11505818;25;20230;-77
2024/04/18 23:56:39;;;;;;;0.50;0.50;;;8.50;92.70;;;;;;11484444;25;20576;-77
